createdAt,value
2022-11-22T00:01:48.961Z,1.40
2022-11-22T00:04:17.004Z,1.60
2022-11-22T00:06:46.121Z,1.30
2022-11-22T00:09:16.673Z,1.20
2022-11-22T00:11:47.182Z,1.43
2022-11-22T00:14:16.401Z,1.40
2022-11-22T00:16:45.765Z,1.23
2022-11-22T00:19:14.413Z,1.30
2022-11-22T00:21:43.068Z,1.40
2022-11-22T00:24:16.196Z,1.10
2022-11-22T00:26:44.745Z,1.87
2022-11-22T00:29:14.006Z,1.20
2022-11-22T00:31:42.213Z,1.57
2022-11-22T00:34:12.044Z,1.20
2022-11-22T00:36:40.126Z,1.67
2022-11-22T00:39:08.131Z,1.40
2022-11-22T00:41:36.912Z,1.30
2022-11-22T00:44:05.108Z,1.30
2022-11-22T00:46:34.277Z,1.40
2022-11-22T00:49:02.314Z,1.33
2022-11-22T00:51:32.089Z,1.20
2022-11-22T00:54:00.970Z,1.30
2022-11-22T00:56:31.528Z,0.90
2022-11-22T00:59:08.218Z,1.37
2022-11-22T01:01:40.260Z,1.10
2022-11-22T01:04:08.444Z,1.00
2022-11-22T01:06:40.600Z,1.10
2022-11-22T01:09:08.712Z,1.30
2022-11-22T01:12:04.163Z,1.67
2022-11-22T01:14:32.206Z,1.10
2022-11-22T01:17:01.173Z,1.00
2022-11-22T01:19:29.783Z,1.10
2022-11-22T01:22:01.255Z,1.30
2022-11-22T01:24:29.765Z,1.00
2022-11-22T01:26:58.440Z,1.07
2022-11-22T01:29:32.467Z,1.60
2022-11-22T01:32:03.171Z,1.40
2022-11-22T01:34:34.272Z,1.23
2022-11-22T01:37:06.230Z,1.10
2022-11-22T01:39:35.910Z,1.30
2022-11-22T01:42:03.962Z,1.20
2022-11-22T01:44:34.988Z,1.37
2022-11-22T01:47:11.113Z,1.63
2022-11-22T01:49:44.985Z,1.50
2022-11-22T01:52:22.478Z,1.23
2022-11-22T01:54:54.370Z,1.10
2022-11-22T01:57:26.015Z,1.57
2022-11-22T01:59:59.521Z,1.80
2022-11-22T02:02:28.924Z,1.20
2022-11-22T02:04:59.552Z,1.10
2022-11-22T02:07:36.741Z,1.60
2022-11-22T02:10:05.614Z,1.30
2022-11-22T02:12:39.606Z,1.20
2022-11-22T02:15:08.567Z,1.77
2022-11-22T02:17:37.913Z,1.80
2022-11-22T02:20:08.355Z,1.33
2022-11-22T02:22:44.635Z,1.20
2022-11-22T02:25:19.802Z,1.40
2022-11-22T02:27:50.549Z,1.50
2022-11-22T02:30:22.722Z,1.73
2022-11-22T02:32:50.873Z,1.80
2022-11-22T02:35:21.858Z,1.60
2022-11-22T02:37:56.118Z,1.87
2022-11-22T02:40:25.156Z,1.83
2022-11-22T02:43:00.132Z,2.80
2022-11-22T02:45:35.388Z,1.47
2022-11-22T02:48:09.838Z,1.57
2022-11-22T02:50:41.406Z,2.00
2022-11-22T02:53:11.206Z,1.63
2022-11-22T02:55:41.791Z,2.40
2022-11-22T02:58:13.258Z,1.87
2022-11-22T03:03:24.809Z,2.40
2022-11-22T03:05:56.246Z,1.50
2022-11-22T03:11:07.733Z,2.00
2022-11-22T03:13:37.170Z,1.80
2022-11-22T03:16:08.078Z,1.90
2022-11-22T03:18:37.511Z,2.10
2022-11-22T03:21:07.061Z,2.67
2022-11-22T03:23:36.302Z,2.57
2022-11-22T03:26:09.300Z,2.10
2022-11-22T03:28:38.901Z,1.90
2022-11-22T03:31:08.024Z,2.67
2022-11-22T03:33:37.232Z,1.87
2022-11-22T03:36:13.202Z,2.80
2022-11-22T03:38:41.695Z,2.10
2022-11-22T03:41:10.985Z,2.80
2022-11-22T03:43:48.489Z,2.80
2022-11-22T03:46:19.872Z,2.30
2022-11-22T03:48:49.230Z,1.90
2022-11-22T03:51:17.233Z,2.10
2022-11-22T03:53:46.149Z,1.80
2022-11-22T03:56:16.492Z,2.70
2022-11-22T03:58:46.333Z,1.90
2022-11-22T04:01:16.834Z,2.30
2022-11-22T04:03:46.040Z,3.43
2022-11-22T04:06:14.155Z,1.50
2022-11-22T04:08:42.860Z,2.47
2022-11-22T04:11:14.019Z,1.90
2022-11-22T04:13:59.462Z,2.30
2022-11-22T04:16:31.828Z,2.40
2022-11-22T04:19:00.526Z,2.07
2022-11-22T04:21:37.048Z,2.50
2022-11-22T04:24:26.258Z,2.47
2022-11-22T04:26:55.301Z,2.30
2022-11-22T04:29:24.017Z,2.93
2022-11-22T04:32:11.123Z,2.10
2022-11-22T04:34:41.507Z,2.23
2022-11-22T04:37:10.564Z,2.20
2022-11-22T04:39:39.529Z,3.27
2022-11-22T04:42:27.884Z,3.10
2022-11-22T04:44:56.885Z,2.20
2022-11-22T04:47:50.359Z,2.50
2022-11-22T04:50:37.257Z,2.03
2022-11-22T04:53:06.059Z,1.80
2022-11-22T04:55:34.584Z,2.17
2022-11-22T04:58:02.771Z,2.20
2022-11-22T05:00:32.124Z,2.30
2022-11-22T05:03:04.814Z,1.73
2022-11-22T05:05:36.585Z,2.20
2022-11-22T05:08:05.552Z,2.90
2022-11-22T05:10:54.722Z,2.30
2022-11-22T05:13:25.453Z,1.80
2022-11-22T05:15:53.646Z,1.90
2022-11-22T05:18:32.484Z,1.73
2022-11-22T05:21:04.898Z,1.97
2022-11-22T05:23:51.277Z,2.27
2022-11-22T05:26:19.714Z,1.60
2022-11-22T05:28:47.703Z,1.53
2022-11-22T05:31:17.828Z,1.90
2022-11-22T05:33:47.838Z,1.93
2022-11-22T05:36:17.871Z,1.90
2022-11-22T05:38:46.535Z,1.80
2022-11-22T05:41:16.274Z,1.77
2022-11-22T05:43:45.773Z,2.10
2022-11-22T05:46:18.336Z,2.47
2022-11-22T05:48:52.707Z,2.23
2022-11-22T05:51:23.044Z,2.63
2022-11-22T05:53:52.125Z,2.27
2022-11-22T05:56:30.005Z,1.90
2022-11-22T05:58:58.941Z,1.63
2022-11-22T06:01:27.012Z,2.00
2022-11-22T06:03:56.903Z,1.70
2022-11-22T06:06:25.574Z,2.17
2022-11-22T06:08:54.510Z,2.33
2022-11-22T06:11:24.473Z,2.60
2022-11-22T06:13:57.602Z,2.10
2022-11-22T06:16:26.702Z,2.23
2022-11-22T06:18:57.978Z,1.90
2022-11-22T06:21:28.984Z,2.70
2022-11-22T06:23:59.781Z,2.10
2022-11-22T06:26:28.773Z,2.40
2022-11-22T06:28:56.925Z,2.17
2022-11-22T06:31:26.604Z,2.10
2022-11-22T06:33:59.088Z,1.93
2022-11-22T06:36:28.747Z,2.50
2022-11-22T06:38:57.640Z,2.33
2022-11-22T06:41:29.146Z,2.87
2022-11-22T06:43:57.573Z,1.87
2022-11-22T06:46:27.431Z,1.90
2022-11-22T06:49:02.984Z,3.13
2022-11-22T06:51:32.986Z,2.30
2022-11-22T06:54:01.176Z,2.30
2022-11-22T06:56:31.280Z,3.00
2022-11-22T06:59:02.669Z,3.30
2022-11-22T07:01:31.562Z,2.30
2022-11-22T07:04:02.051Z,3.97
2022-11-22T07:06:32.089Z,2.13
2022-11-22T07:09:00.979Z,2.23
2022-11-22T07:11:30.896Z,2.17
2022-11-22T07:14:07.074Z,2.57
2022-11-22T07:16:37.417Z,3.03
2022-11-22T07:19:07.712Z,2.13
2022-11-22T07:21:37.773Z,2.00
2022-11-22T07:24:09.986Z,2.30
2022-11-22T07:26:38.506Z,2.13
2022-11-22T07:29:06.527Z,2.20
2022-11-22T07:31:35.198Z,2.50
2022-11-22T07:34:03.276Z,2.27
2022-11-22T07:36:32.824Z,2.30
2022-11-22T07:39:00.851Z,2.57
2022-11-22T07:41:31.525Z,1.77
2022-11-22T07:44:00.043Z,2.07
2022-11-22T07:46:31.264Z,2.10
2022-11-22T07:49:00.456Z,2.37
2022-11-22T07:51:29.095Z,3.07
2022-11-22T07:53:59.408Z,1.93
2022-11-22T07:56:29.801Z,2.10
2022-11-22T07:59:01.336Z,1.90
2022-11-22T08:01:30.266Z,2.07
2022-11-22T08:03:58.321Z,2.40
2022-11-22T08:06:27.300Z,3.27
2022-11-22T08:09:06.991Z,2.70
2022-11-22T08:11:35.162Z,1.93
2022-11-22T08:14:03.164Z,2.03
2022-11-22T08:16:31.795Z,2.27
2022-11-22T08:18:59.785Z,2.57
2022-11-22T08:21:28.201Z,2.80
2022-11-22T08:24:30.706Z,2.00
2022-11-22T08:26:58.697Z,2.13
2022-11-22T08:29:26.848Z,2.13
2022-11-22T08:31:54.846Z,2.27
2022-11-22T08:34:22.871Z,1.83
2022-11-22T08:36:51.191Z,1.57
2022-11-22T08:39:21.233Z,2.10
2022-11-22T08:41:53.565Z,1.70
2022-11-22T08:44:21.632Z,2.57
2022-11-22T08:46:49.602Z,1.97
2022-11-22T08:49:18.541Z,2.50
2022-11-22T08:54:37.358Z,2.10
2022-11-22T08:57:10.666Z,3.00
2022-11-22T08:59:39.718Z,1.70
2022-11-22T09:02:07.758Z,1.40
2022-11-22T09:04:36.189Z,2.20
2022-11-22T09:09:53.185Z,1.63
2022-11-22T09:12:25.197Z,1.70
2022-11-22T09:14:59.668Z,1.97
2022-11-22T09:17:27.714Z,1.53
2022-11-22T09:19:55.737Z,1.70
2022-11-22T09:22:28.401Z,2.17
2022-11-22T09:24:56.766Z,1.70
2022-11-22T09:27:27.171Z,1.67
2022-11-22T09:29:55.161Z,1.90
2022-11-22T09:32:28.156Z,1.43
2022-11-22T09:34:58.752Z,2.07
2022-11-22T09:37:26.752Z,1.30
2022-11-22T09:39:54.756Z,1.60
2022-11-22T09:42:47.368Z,2.40
2022-11-22T09:45:35.523Z,1.70
2022-11-22T09:48:13.230Z,2.00
2022-11-22T09:50:52.321Z,1.60
2022-11-22T09:53:26.866Z,1.80
2022-11-22T09:55:59.338Z,2.03
2022-11-22T09:58:33.252Z,1.63
2022-11-22T10:01:06.161Z,2.23
2022-11-22T10:03:44.475Z,1.80
2022-11-22T10:06:19.293Z,2.63
2022-11-22T10:08:57.876Z,1.70
2022-11-22T10:11:36.847Z,2.10
2022-11-22T10:14:22.217Z,1.87
2022-11-22T10:16:57.507Z,1.80
2022-11-22T10:19:38.885Z,2.60
2022-11-22T10:22:14.605Z,2.00
2022-11-22T10:24:44.606Z,1.90
2022-11-22T10:27:15.455Z,2.13
2022-11-22T10:29:52.366Z,1.60
2022-11-22T10:32:26.323Z,1.73
2022-11-22T10:35:13.073Z,1.90
2022-11-22T10:37:54.447Z,2.27
2022-11-22T10:40:27.516Z,1.73
2022-11-22T10:43:25.831Z,2.20
2022-11-22T10:46:02.332Z,2.20
2022-11-22T10:48:39.878Z,1.97
2022-11-22T10:51:18.551Z,1.23
2022-11-22T10:54:03.553Z,1.67
2022-11-22T10:56:39.860Z,2.07
2022-11-22T10:59:28.925Z,1.63
2022-11-22T11:02:13.652Z,1.80
2022-11-22T11:04:43.447Z,2.13
2022-11-22T11:07:17.463Z,1.63
2022-11-22T11:12:48.864Z,1.40
2022-11-22T11:15:22.306Z,2.07
2022-11-22T11:17:58.296Z,1.40
2022-11-22T11:20:29.117Z,1.80
2022-11-22T11:23:15.085Z,2.10
2022-11-22T11:25:45.566Z,1.47
2022-11-22T11:28:21.737Z,1.93
2022-11-22T11:30:54.382Z,2.10
2022-11-22T11:33:28.056Z,1.30
2022-11-22T11:36:06.485Z,1.33
2022-11-22T11:38:37.846Z,1.10
2022-11-22T11:41:25.012Z,1.57
2022-11-22T11:43:54.601Z,1.17
2022-11-22T11:46:25.503Z,1.30
2022-11-22T11:48:56.253Z,1.50
2022-11-22T11:51:36.040Z,1.80
2022-11-22T11:54:11.237Z,1.80
2022-11-22T11:56:47.509Z,1.50
2022-11-22T11:59:18.581Z,1.53
2022-11-22T12:01:55.480Z,2.00
2022-11-22T12:04:30.829Z,1.27
2022-11-22T12:07:04.075Z,1.50
2022-11-22T12:09:41.702Z,1.50
2022-11-22T12:12:18.893Z,1.77
2022-11-22T12:15:10.376Z,3.40
2022-11-22T12:17:49.901Z,1.97
2022-11-22T12:20:25.455Z,1.00
2022-11-22T12:23:18.343Z,1.13
2022-11-22T12:25:50.299Z,1.10
2022-11-22T12:28:21.288Z,1.43
2022-11-22T12:30:54.922Z,1.10
2022-11-22T12:33:28.245Z,1.00
2022-11-22T12:35:58.636Z,1.70
2022-11-22T12:38:33.937Z,1.20
2022-11-22T12:41:05.552Z,0.93
2022-11-22T12:43:40.466Z,1.00
2022-11-22T12:46:15.953Z,0.90
2022-11-22T12:48:49.222Z,1.13
2022-11-22T12:51:29.864Z,1.20
2022-11-22T12:54:02.980Z,1.50
2022-11-22T12:56:35.141Z,1.20
2022-11-22T12:59:14.924Z,1.37
2022-11-22T13:01:48.584Z,1.40
2022-11-22T13:04:23.430Z,1.50
2022-11-22T13:06:59.282Z,1.77
2022-11-22T13:09:33.319Z,1.77
2022-11-22T13:12:05.983Z,2.07
2022-11-22T13:14:37.480Z,1.50
2022-11-22T13:17:08.841Z,1.20
2022-11-22T13:19:45.332Z,1.20
2022-11-22T13:22:30.780Z,1.70
2022-11-22T13:25:15.269Z,1.20
2022-11-22T13:27:46.378Z,1.37
2022-11-22T13:30:22.236Z,1.53
2022-11-22T13:32:53.176Z,1.13
2022-11-22T13:35:28.882Z,1.47
2022-11-22T13:38:01.682Z,1.20
2022-11-22T13:40:32.199Z,1.30
2022-11-22T13:43:32.999Z,1.53
2022-11-22T13:46:04.436Z,1.63
2022-11-22T13:49:14.693Z,1.40
2022-11-22T13:51:57.233Z,1.23
2022-11-22T13:55:02.744Z,1.77
2022-11-22T13:57:38.503Z,1.40
2022-11-22T14:00:43.513Z,0.97
2022-11-22T14:03:23.970Z,1.10
2022-11-22T14:05:54.586Z,1.53
2022-11-22T14:08:31.800Z,1.23
2022-11-22T14:11:13.551Z,1.00
2022-11-22T14:13:52.096Z,1.10
2022-11-22T14:16:41.327Z,0.90
2022-11-22T14:19:21.218Z,1.37
2022-11-22T14:22:03.117Z,1.60
2022-11-22T14:24:51.134Z,1.37
2022-11-22T14:27:35.908Z,1.17
2022-11-22T14:30:18.086Z,1.10
2022-11-22T14:32:53.631Z,1.10
2022-11-22T14:35:30.120Z,1.20
2022-11-22T14:38:02.540Z,1.27
2022-11-22T14:40:42.136Z,1.20
2022-11-22T14:43:40.834Z,0.80
2022-11-22T14:46:37.300Z,1.00
2022-11-22T14:49:11.936Z,0.90
2022-11-22T14:51:40.761Z,1.47
2022-11-22T14:54:21.597Z,1.40
2022-11-22T14:56:50.726Z,0.87
2022-11-22T14:59:40.411Z,0.90
2022-11-22T15:02:39.804Z,1.00
2022-11-22T15:09:13.087Z,0.90
2022-11-22T15:09:20.088Z,0.87
2022-11-22T15:11:26.795Z,0.90
2022-11-22T15:14:33.952Z,1.20
2022-11-22T15:57:29.246Z,1.00
2022-11-22T15:59:58.460Z,1.50
2022-11-22T16:02:29.670Z,1.60
2022-11-22T16:06:09.913Z,1.13
2022-11-22T16:07:55.786Z,0.80
2022-11-22T16:10:28.486Z,1.00
2022-11-22T16:12:56.723Z,1.20
2022-11-22T16:15:31.091Z,1.40
2022-11-22T16:18:09.386Z,1.10
2022-11-22T16:20:39.618Z,1.00
2022-11-22T16:23:29.829Z,0.90
2022-11-22T16:26:15.562Z,1.10
2022-11-22T16:28:43.731Z,1.30
2022-11-22T16:31:20.776Z,1.20
2022-11-22T16:33:51.726Z,1.00
2022-11-22T16:36:21.886Z,1.40
2022-11-22T16:38:51.886Z,1.40
2022-11-22T16:41:24.626Z,1.30
2022-11-22T16:43:55.533Z,2.07
2022-11-22T16:46:26.709Z,1.20
2022-11-22T16:48:55.887Z,1.10
2022-11-22T16:51:26.389Z,1.30
2022-11-22T16:54:01.836Z,1.00
2022-11-22T16:56:33.310Z,1.30
2022-11-22T16:59:01.611Z,1.20
2022-11-22T17:01:34.004Z,1.33
2022-11-22T17:04:03.188Z,1.50
2022-11-22T17:06:32.396Z,1.40
2022-11-22T17:09:06.119Z,1.20
2022-11-22T17:11:34.150Z,1.40
2022-11-22T17:14:02.165Z,1.00
2022-11-22T17:16:31.150Z,1.07
2022-11-22T17:19:01.475Z,1.23
2022-11-22T17:21:37.298Z,1.23
2022-11-22T17:24:14.238Z,1.20
2022-11-22T17:26:50.543Z,1.23
2022-11-22T17:29:43.306Z,1.00
2022-11-22T17:32:08.145Z,1.90
2022-11-22T17:34:36.118Z,1.00
2022-11-22T17:37:04.210Z,1.20
2022-11-22T17:39:35.332Z,1.00
2022-11-22T17:42:07.054Z,1.13
2022-11-22T17:44:35.535Z,1.10
2022-11-22T17:47:03.564Z,1.57
2022-11-22T17:49:32.019Z,1.10
2022-11-22T17:52:00.235Z,1.23
2022-11-22T17:54:29.260Z,1.60
2022-11-22T17:56:58.638Z,1.27
2022-11-22T17:59:27.308Z,1.37
2022-11-22T18:01:55.285Z,1.60
2022-11-22T18:04:25.820Z,1.00
2022-11-22T18:06:54.721Z,0.90
2022-11-22T18:09:22.690Z,1.00
2022-11-22T18:11:54.262Z,1.00
2022-11-22T18:14:28.114Z,0.80
2022-11-22T18:16:56.193Z,0.90
2022-11-22T18:19:28.700Z,0.97
2022-11-22T18:22:08.498Z,1.00
2022-11-22T18:24:36.951Z,1.10
2022-11-22T18:27:07.091Z,0.90
2022-11-22T18:29:42.508Z,0.90
2022-11-22T18:32:11.565Z,1.10
2022-11-22T18:34:42.527Z,0.93
2022-11-22T18:37:10.948Z,0.90
2022-11-22T18:39:40.705Z,1.00
2022-11-22T18:42:15.167Z,1.47
2022-11-22T18:44:45.705Z,1.20
2022-11-22T18:47:21.245Z,1.00
2022-11-22T18:49:49.914Z,1.27
2022-11-22T18:52:20.452Z,0.83
2022-11-22T18:54:51.174Z,1.30
2022-11-22T18:57:19.269Z,0.97
2022-11-22T18:59:48.631Z,0.87
2022-11-22T19:02:17.268Z,0.90
2022-11-22T19:04:45.807Z,0.93
2022-11-22T19:07:14.557Z,0.80
2022-11-22T19:09:42.761Z,0.87
2022-11-22T19:12:11.621Z,1.10
2022-11-22T19:14:47.130Z,1.07
2022-11-22T19:17:22.028Z,1.30
2022-11-22T19:19:56.886Z,1.00
2022-11-22T19:22:27.431Z,1.27
2022-11-22T19:24:55.874Z,1.17
2022-11-22T19:27:24.754Z,1.00
2022-11-22T19:29:53.243Z,1.07
2022-11-22T19:32:22.622Z,0.93
2022-11-22T19:34:51.153Z,1.00
2022-11-22T19:37:19.590Z,1.00
2022-11-22T19:39:48.634Z,1.20
2022-11-22T19:42:17.662Z,1.40
2022-11-22T19:44:46.501Z,1.00
2022-11-22T19:47:14.972Z,1.20
2022-11-22T19:49:44.357Z,1.20
2022-11-22T19:52:14.634Z,1.00
2022-11-22T19:54:43.118Z,0.80
2022-11-22T19:57:11.494Z,1.30
2022-11-22T19:59:39.988Z,1.10
2022-11-22T20:02:09.028Z,1.10
2022-11-22T20:04:39.997Z,1.30
2022-11-22T20:07:11.946Z,1.20
2022-11-22T20:09:40.642Z,1.23
2022-11-22T20:12:08.768Z,1.30
2022-11-22T20:14:37.280Z,1.07
2022-11-22T20:17:06.611Z,2.03
2022-11-22T20:19:34.810Z,1.40
2022-11-22T20:22:02.901Z,1.30
2022-11-22T20:24:33.443Z,1.43
2022-11-22T20:27:02.408Z,1.23
2022-11-22T20:29:30.407Z,1.50
2022-11-22T20:32:08.364Z,1.20
2022-11-22T20:34:36.814Z,1.10
2022-11-22T20:37:07.426Z,0.90
2022-11-22T20:39:37.446Z,1.43
2022-11-22T20:42:32.982Z,1.10
2022-11-22T20:45:00.109Z,0.90
2022-11-22T20:47:28.165Z,1.00
2022-11-22T20:49:56.206Z,1.10
2022-11-22T20:52:24.880Z,0.90
2022-11-22T20:54:54.316Z,0.93
2022-11-22T20:57:22.707Z,1.30
2022-11-22T20:59:51.530Z,1.23
2022-11-22T21:02:22.046Z,1.00
2022-11-22T21:04:51.043Z,1.43
2022-11-22T21:07:19.154Z,1.60
2022-11-22T21:09:47.231Z,1.57
2022-11-22T21:12:16.936Z,1.10
2022-11-22T21:14:45.199Z,1.00
2022-11-22T21:17:39.375Z,1.33
2022-11-22T21:20:01.226Z,1.23
2022-11-22T21:22:31.822Z,1.17
2022-11-22T21:25:01.293Z,1.60
2022-11-22T21:27:31.198Z,1.10
2022-11-22T21:29:59.397Z,1.03
2022-11-22T21:32:27.431Z,1.30
2022-11-22T21:34:57.677Z,1.30
2022-11-22T21:37:26.010Z,2.40
2022-11-22T21:39:54.504Z,0.97
2022-11-22T21:42:23.482Z,1.30
2022-11-22T21:44:55.279Z,1.20
2022-11-22T21:47:24.264Z,1.40
2022-11-22T21:49:52.634Z,1.30
2022-11-22T21:52:23.422Z,1.50
2022-11-22T21:54:55.136Z,1.70
2022-11-22T21:57:23.244Z,1.47
2022-11-22T21:59:55.686Z,1.00
2022-11-22T22:02:24.610Z,1.30
2022-11-22T22:04:54.634Z,1.00
2022-11-22T22:07:50.712Z,1.77
2022-11-22T22:10:12.888Z,1.10
2022-11-22T22:12:41.340Z,1.43
2022-11-22T22:15:12.842Z,1.30
2022-11-22T22:17:41.069Z,1.77
2022-11-22T22:20:09.916Z,1.10
2022-11-22T22:22:41.582Z,1.30
2022-11-22T22:25:10.091Z,1.00
2022-11-22T22:27:38.084Z,1.50
2022-11-22T22:30:10.762Z,1.23
2022-11-22T22:32:42.761Z,1.40
2022-11-22T22:35:11.844Z,1.77
2022-11-22T22:37:39.826Z,1.30
2022-11-22T22:40:09.054Z,1.10
2022-11-22T22:42:40.394Z,1.67
2022-11-22T22:45:09.048Z,1.80
2022-11-22T22:47:37.057Z,1.43
2022-11-22T22:50:08.450Z,1.27
2022-11-22T22:52:36.477Z,1.50
2022-11-22T22:55:04.839Z,1.33
2022-11-22T22:57:33.610Z,1.20
2022-11-22T23:00:01.593Z,1.30
2022-11-22T23:02:30.392Z,1.30
2022-11-22T23:05:01.110Z,1.20
2022-11-22T23:07:30.584Z,1.40
2022-11-22T23:10:00.472Z,2.23
2022-11-22T23:12:28.698Z,1.60
2022-11-22T23:14:59.444Z,1.10
2022-11-22T23:17:28.015Z,1.47
2022-11-22T23:19:58.401Z,1.30
2022-11-22T23:22:26.850Z,1.70
2022-11-22T23:24:56.355Z,1.10
2022-11-22T23:27:24.377Z,1.50
2022-11-22T23:29:52.350Z,1.30
2022-11-22T23:32:21.178Z,1.13
2022-11-22T23:34:52.042Z,1.93
2022-11-22T23:37:20.591Z,1.20
2022-11-22T23:39:50.661Z,2.70
2022-11-22T23:42:30.909Z,1.07
2022-11-22T23:44:59.840Z,1.50
2022-11-22T23:47:28.103Z,1.67
2022-11-22T23:49:56.123Z,1.23
2022-11-22T23:52:27.424Z,1.43
2022-11-22T23:54:56.003Z,2.40
2022-11-22T23:57:27.506Z,1.23
2022-11-22T23:59:56.628Z,1.80
